Time;durP1;ratioP1;P1;durP2;ratioP2;P2;SDS_P1;SDS_P2;PMS_P1;PMS_P2;Temp;Humidity;BMP_temperature;BMP_pressure;BME280_temperature;BME280_humidity;BME280_pressure;Samples;Min_cycle;Max_cycle;Signal;HPM_P1;HPM_P2
2021/04/17 00:02:12;;;;;;;11.20;2.78;;;15.30;99.90;;;;;;5091316;28;20387;-79
2021/04/17 00:04:39;;;;;;;14.55;3.03;;;15.20;99.90;;;;;;5091485;28;20711;-80
2021/04/17 00:07:10;;;;;;;9.73;2.97;;;15.20;99.90;;;;;;5091511;28;20870;-79
2021/04/17 00:09:38;;;;;;;11.83;2.67;;;15.20;99.90;;;;;;5091355;28;20383;-80
2021/04/17 00:12:17;;;;;;;9.75;2.60;;;15.20;99.90;;;;;;5085083;28;20404;-80
2021/04/17 00:14:47;;;;;;;11.55;2.33;;;15.30;99.90;;;;;;5083900;28;20481;-79
2021/04/17 00:17:16;;;;;;;12.45;2.60;;;15.40;99.90;;;;;;5077609;28;20443;-79
2021/04/17 00:19:46;;;;;;;9.55;2.45;;;15.50;99.90;;;;;;5089947;28;20866;-79
2021/04/17 00:22:13;;;;;;;10.35;2.55;;;15.60;99.90;;;;;;5080170;28;20397;-79
2021/04/17 00:24:41;;;;;;;10.02;2.53;;;15.60;99.90;;;;;;5070680;28;20453;-79
2021/04/17 00:27:08;;;;;;;10.75;2.40;;;15.80;99.90;;;;;;5072328;28;20390;-79
2021/04/17 00:29:36;;;;;;;10.43;2.28;;;15.90;99.90;;;;;;5084589;28;20438;-79
2021/04/17 00:32:06;;;;;;;9.15;2.63;;;16.00;99.90;;;;;;5087580;28;20494;-79
2021/04/17 00:34:33;;;;;;;13.02;2.45;;;16.20;99.90;;;;;;5074869;28;20389;-79
2021/04/17 00:37:00;;;;;;;6.35;2.08;;;16.20;99.90;;;;;;5073819;28;20431;-79
2021/04/17 00:39:27;;;;;;;11.02;2.10;;;16.20;99.90;;;;;;5085408;28;20474;-80
2021/04/17 00:41:55;;;;;;;10.32;2.20;;;16.30;99.90;;;;;;5091738;28;20456;-79
2021/04/17 00:44:22;;;;;;;10.32;2.13;;;16.40;99.90;;;;;;5086158;28;20399;-78
2021/04/17 00:46:50;;;;;;;11.93;2.28;;;16.50;99.90;;;;;;5080518;28;21178;-78
2021/04/17 00:49:17;;;;;;;9.40;1.98;;;16.60;99.90;;;;;;5073317;28;20738;-79
2021/04/17 00:51:45;;;;;;;9.50;2.08;;;16.70;99.90;;;;;;5077282;28;20412;-80
2021/04/17 00:54:11;;;;;;;8.73;1.63;;;16.80;99.90;;;;;;5089594;28;20405;-80
2021/04/17 00:56:39;;;;;;;8.73;2.00;;;17.00;99.90;;;;;;5104595;28;20394;-78
2021/04/17 00:59:09;;;;;;;7.80;1.80;;;17.10;99.90;;;;;;5110226;28;20433;-77
2021/04/17 01:01:36;;;;;;;9.52;1.65;;;17.30;99.90;;;;;;5084149;28;20383;-78
2021/04/17 01:04:08;;;;;;;10.25;2.78;;;17.40;99.90;;;;;;5070215;28;20379;-78
2021/04/17 01:06:45;;;;;;;7.00;1.95;;;17.30;99.90;;;;;;5071550;28;20411;-77
2021/04/17 01:09:47;;;;;;;12.10;5.35;;;17.20;99.70;;;;;;5070958;28;20401;-78
2021/04/17 01:12:17;;;;;;;9.05;1.90;;;17.20;99.90;;;;;;5047850;28;20378;-78
2021/04/17 01:14:49;;;;;;;10.80;2.75;;;17.10;99.90;;;;;;5079081;28;20397;-78
2021/04/17 01:17:17;;;;;;;6.85;3.10;;;17.00;99.90;;;;;;5069127;28;20405;-78
2021/04/17 01:20:02;;;;;;;10.07;2.10;;;16.90;99.90;;;;;;5072514;28;20382;-78
2021/04/17 01:22:30;;;;;;;7.97;1.65;;;16.90;99.90;;;;;;5088421;28;20376;-78
2021/04/17 01:25:11;;;;;;;6.13;1.45;;;17.00;99.90;;;;;;5084801;28;20406;-77
2021/04/17 01:27:39;;;;;;;9.05;2.15;;;17.10;99.90;;;;;;5082048;28;20515;-77
2021/04/17 01:30:19;;;;;;;5.80;1.50;;;17.20;99.90;;;;;;5087006;28;20388;-78
2021/04/17 01:32:48;;;;;;;8.95;1.60;;;17.30;99.90;;;;;;5081224;28;20873;-78
2021/04/17 01:35:20;;;;;;;6.88;1.35;;;17.20;99.90;;;;;;5089595;28;20378;-78
2021/04/17 01:38:00;;;;;;;5.22;1.50;;;17.20;99.90;;;;;;5089163;28;20487;-78
2021/04/17 01:40:30;;;;;;;6.35;1.75;;;17.20;99.90;;;;;;5088192;28;20412;-80
2021/04/17 01:42:58;;;;;;;5.95;1.75;;;17.20;99.90;;;;;;5089111;28;20373;-77
2021/04/17 01:45:27;;;;;;;7.65;1.80;;;17.10;99.50;;;;;;5088202;28;20385;-77
2021/04/17 01:48:00;;;;;;;7.87;1.33;;;17.10;99.20;;;;;;5084114;28;20389;-78
2021/04/17 01:50:31;;;;;;;5.50;1.35;;;17.00;98.20;;;;;;5075804;28;20424;-78
2021/04/17 01:53:01;;;;;;;7.10;1.65;;;17.00;98.90;;;;;;5067725;28;20398;-78
2021/04/17 01:55:31;;;;;;;6.13;1.67;;;17.00;99.90;;;;;;5069278;28;20387;-77
2021/04/17 01:58:00;;;;;;;5.75;1.48;;;17.10;99.90;;;;;;5069028;28;20492;-78
2021/04/17 02:00:27;;;;;;;8.85;1.77;;;17.10;99.90;;;;;;5082563;28;20392;-77
2021/04/17 02:02:54;;;;;;;9.18;1.90;;;17.10;99.50;;;;;;5071557;28;20408;-78
2021/04/17 02:05:21;;;;;;;8.83;1.77;;;17.10;99.20;;;;;;5082128;28;20424;-77
2021/04/17 02:07:48;;;;;;;10.43;2.07;;;16.90;98.80;;;;;;5086994;28;20741;-78
2021/04/17 02:10:15;;;;;;;7.82;2.08;;;16.90;99.20;;;;;;5081151;28;20743;-78
2021/04/17 02:12:42;;;;;;;9.25;1.90;;;16.80;99.90;;;;;;5081428;28;20387;-78
2021/04/17 02:15:09;;;;;;;8.55;2.03;;;16.80;99.90;;;;;;5084390;28;20382;-77
2021/04/17 02:18:08;;;;;;;4.35;1.45;;;16.80;99.90;;;;;;5088747;28;20384;-77
2021/04/17 02:20:42;;;;;;;8.75;1.67;;;16.90;99.90;;;;;;5060847;28;20939;-77
2021/04/17 02:23:12;;;;;;;5.10;1.40;;;16.90;99.90;;;;;;5082894;28;20388;-77
2021/04/17 02:25:39;;;;;;;8.60;1.70;;;16.90;99.90;;;;;;5080476;28;20388;-77
2021/04/17 02:28:08;;;;;;;7.68;1.67;;;17.00;99.90;;;;;;5076377;28;20872;-78
2021/04/17 02:30:37;;;;;;;6.55;1.35;;;17.10;99.90;;;;;;5078014;28;20885;-78
2021/04/17 02:33:04;;;;;;;9.82;1.90;;;17.10;99.90;;;;;;5078216;28;20422;-78
2021/04/17 02:35:32;;;;;;;5.55;1.33;;;17.10;99.90;;;;;;5087517;28;20499;-78
2021/04/17 02:37:59;;;;;;;6.10;1.40;;;17.20;99.90;;;;;;5087704;28;20496;-78
2021/04/17 02:40:26;;;;;;;4.90;1.37;;;17.20;99.80;;;;;;5076631;28;20495;-77
2021/04/17 02:42:53;;;;;;;5.05;1.35;;;17.10;99.70;;;;;;5070707;28;20485;-78
2021/04/17 02:45:20;;;;;;;8.13;1.60;;;17.10;99.90;;;;;;5079621;28;20392;-78
2021/04/17 02:47:47;;;;;;;6.97;1.97;;;17.10;99.70;;;;;;5079525;28;20388;-77
2021/04/17 02:50:14;;;;;;;6.28;1.77;;;17.10;99.90;;;;;;5072144;28;20439;-79
2021/04/17 02:52:41;;;;;;;7.22;1.50;;;17.10;99.90;;;;;;5087804;28;20418;-79
2021/04/17 02:55:09;;;;;;;6.75;1.55;;;17.10;99.90;;;;;;5108808;28;20369;-80
2021/04/17 02:57:36;;;;;;;6.50;1.58;;;17.10;99.90;;;;;;5085192;28;20403;-78
2021/04/17 03:00:06;;;;;;;9.98;1.90;;;17.10;99.90;;;;;;5082193;28;20380;-79
2021/04/17 03:02:33;;;;;;;5.70;1.40;;;17.20;99.90;;;;;;5076378;28;20896;-79
2021/04/17 03:05:01;;;;;;;10.00;1.60;;;17.10;99.90;;;;;;5088942;28;20392;-78
2021/04/17 03:07:28;;;;;;;7.80;1.30;;;17.00;99.90;;;;;;5088249;28;20384;-78
2021/04/17 03:09:55;;;;;;;6.22;1.15;;;17.00;99.90;;;;;;5073226;28;20370;-79
2021/04/17 03:12:22;;;;;;;9.77;1.80;;;17.00;99.70;;;;;;5095425;28;20429;-79
2021/04/17 03:14:49;;;;;;;4.88;1.52;;;16.90;99.90;;;;;;5081281;28;20384;-79
2021/04/17 03:17:16;;;;;;;5.22;1.60;;;16.80;99.90;;;;;;5091908;28;20392;-79
2021/04/17 03:19:43;;;;;;;6.68;1.52;;;16.80;99.90;;;;;;5086713;28;20824;-79
2021/04/17 03:22:10;;;;;;;9.70;1.73;;;16.80;99.90;;;;;;5079561;28;20400;-79
2021/04/17 03:24:38;;;;;;;7.72;1.50;;;16.80;99.90;;;;;;5081830;28;20407;-78
2021/04/17 03:27:05;;;;;;;9.32;1.67;;;16.80;99.90;;;;;;5077921;28;20386;-78
2021/04/17 03:29:32;;;;;;;6.22;1.65;;;16.70;99.90;;;;;;5071558;28;20389;-79
2021/04/17 03:31:59;;;;;;;6.32;1.58;;;16.70;99.90;;;;;;5076722;28;20879;-79
2021/04/17 03:34:27;;;;;;;7.10;1.55;;;16.70;99.90;;;;;;5090134;28;20395;-79
2021/04/17 03:36:55;;;;;;;6.90;1.58;;;16.70;99.90;;;;;;5091180;28;20426;-79
2021/04/17 03:39:22;;;;;;;7.93;1.80;;;16.70;99.90;;;;;;5080933;28;20398;-79
2021/04/17 03:41:49;;;;;;;5.75;1.50;;;16.60;99.90;;;;;;5071741;28;20417;-79
2021/04/17 03:44:16;;;;;;;4.90;1.48;;;16.60;99.90;;;;;;5071978;28;20381;-79
2021/04/17 03:46:43;;;;;;;7.00;2.05;;;16.60;99.90;;;;;;5084725;28;20396;-79
2021/04/17 03:49:10;;;;;;;9.32;1.80;;;16.60;99.90;;;;;;5091475;28;20419;-79
2021/04/17 03:51:37;;;;;;;7.55;2.00;;;16.70;99.90;;;;;;5091518;28;20433;-79
2021/04/17 03:54:05;;;;;;;6.47;2.17;;;16.70;99.90;;;;;;5079689;28;20392;-78
2021/04/17 03:56:32;;;;;;;7.70;1.83;;;16.70;99.90;;;;;;5083465;28;20396;-78
2021/04/17 03:58:59;;;;;;;8.68;2.13;;;16.60;99.90;;;;;;5074056;28;20432;-78
2021/04/17 04:01:26;;;;;;;9.27;2.80;;;16.50;99.90;;;;;;5092157;28;20365;-79
2021/04/17 04:03:56;;;;;;;9.77;3.10;;;16.50;99.90;;;;;;5075284;28;20908;-79
2021/04/17 04:06:24;;;;;;;20.33;12.32;;;16.40;99.90;;;;;;5076687;28;20901;-78
2021/04/17 04:08:51;;;;;;;47.35;30.00;;;16.40;99.90;;;;;;5082804;28;20487;-78
2021/04/17 04:11:18;;;;;;;51.00;33.60;;;16.40;99.90;;;;;;5070868;28;20386;-79
2021/04/17 04:13:45;;;;;;;52.17;33.40;;;16.30;99.90;;;;;;5084067;28;21256;-79
2021/04/17 04:16:12;;;;;;;58.10;36.88;;;16.30;99.90;;;;;;5090405;28;20400;-79
2021/04/17 04:18:39;;;;;;;74.07;46.70;;;16.30;99.90;;;;;;5090891;28;20902;-79
2021/04/17 04:21:06;;;;;;;79.57;53.85;;;16.30;99.90;;;;;;5091491;28;20383;-79
2021/04/17 04:23:33;;;;;;;79.03;54.65;;;16.30;99.90;;;;;;5088509;28;20750;-79
2021/04/17 04:26:00;;;;;;;90.38;61.28;;;16.30;99.90;;;;;;5073686;28;20396;-79
2021/04/17 04:28:27;;;;;;;102.50;72.10;;;16.30;99.90;;;;;;5088333;28;20759;-79
2021/04/17 04:30:54;;;;;;;98.18;66.30;;;16.40;99.90;;;;;;5082220;28;20384;-79
2021/04/17 04:33:21;;;;;;;89.77;63.07;;;16.30;99.90;;;;;;5089755;28;20575;-79
2021/04/17 04:35:49;;;;;;;70.23;47.70;;;16.20;99.90;;;;;;5090927;28;20780;-77
2021/04/17 04:38:16;;;;;;;80.97;54.88;;;16.20;99.90;;;;;;5088181;28;20392;-78
2021/04/17 04:40:44;;;;;;;82.18;55.10;;;16.10;99.90;;;;;;5087579;28;20931;-79
2021/04/17 04:43:11;;;;;;;85.60;57.80;;;16.20;99.90;;;;;;5072962;28;20916;-79
2021/04/17 04:45:38;;;;;;;130.43;97.05;;;16.20;99.90;;;;;;5080512;28;20781;-79
2021/04/17 04:48:09;;;;;;;138.52;100.03;;;16.20;99.90;;;;;;5080635;28;20402;-78
2021/04/17 04:51:10;;;;;;;126.55;89.75;;;16.20;99.90;;;;;;5076500;28;20394;-79
2021/04/17 04:53:38;;;;;;;127.15;91.47;;;16.30;99.90;;;;;;5066536;28;20953;-79
2021/04/17 04:56:06;;;;;;;131.32;94.63;;;16.30;99.90;;;;;;5077398;28;20393;-79
2021/04/17 04:58:33;;;;;;;142.73;104.32;;;16.30;99.90;;;;;;5075337;28;20405;-79
2021/04/17 05:01:00;;;;;;;141.85;103.50;;;16.30;99.90;;;;;;5088565;28;20854;-78
2021/04/17 05:03:27;;;;;;;115.90;87.32;;;16.30;99.90;;;;;;5081277;28;20467;-78
2021/04/17 05:05:54;;;;;;;108.05;77.22;;;16.30;99.90;;;;;;5082677;28;20381;-78
2021/04/17 05:08:21;;;;;;;112.00;76.75;;;16.30;99.90;;;;;;5078991;28;20829;-78
2021/04/17 05:10:48;;;;;;;88.30;63.97;;;16.20;99.90;;;;;;5075241;28;20412;-78
2021/04/17 05:13:15;;;;;;;79.30;55.17;;;16.20;99.90;;;;;;5082557;28;20388;-78
2021/04/17 05:15:42;;;;;;;70.57;49.17;;;16.20;99.90;;;;;;5069875;28;20374;-78
2021/04/17 05:18:09;;;;;;;56.78;37.08;;;16.20;99.90;;;;;;5076292;28;20402;-78
2021/04/17 05:20:36;;;;;;;44.33;27.65;;;16.20;99.90;;;;;;5070414;28;20742;-78
2021/04/17 05:23:03;;;;;;;42.42;23.98;;;16.20;99.90;;;;;;5069018;28;20451;-78
2021/04/17 05:25:30;;;;;;;35.47;21.73;;;16.30;99.90;;;;;;5075407;28;20394;-77
2021/04/17 05:28:00;;;;;;;35.92;20.25;;;16.30;99.90;;;;;;5076260;28;20392;-77
2021/04/17 05:30:27;;;;;;;28.57;17.60;;;16.30;99.90;;;;;;5081996;28;20401;-77
2021/04/17 05:32:54;;;;;;;26.20;16.45;;;16.30;99.90;;;;;;5089865;28;20411;-77
2021/04/17 05:35:21;;;;;;;27.95;15.75;;;16.30;99.90;;;;;;5077826;28;20388;-78
2021/04/17 05:37:48;;;;;;;30.33;15.70;;;16.20;99.90;;;;;;5080545;28;20408;-78
2021/04/17 05:40:15;;;;;;;27.10;16.25;;;16.20;99.90;;;;;;5079769;28;20400;-78
2021/04/17 05:42:42;;;;;;;26.40;15.52;;;16.10;99.90;;;;;;5077973;28;20392;-78
2021/04/17 05:45:10;;;;;;;26.25;14.82;;;16.10;99.90;;;;;;5078200;28;20390;-78
2021/04/17 05:47:37;;;;;;;24.52;13.90;;;16.10;99.90;;;;;;5075331;28;20699;-78
2021/04/17 05:50:05;;;;;;;25.15;14.45;;;16.00;99.90;;;;;;5079768;28;20479;-78
2021/04/17 05:52:31;;;;;;;22.40;12.50;;;16.00;99.90;;;;;;5085587;28;20418;-78
2021/04/17 05:54:59;;;;;;;21.60;12.73;;;15.90;99.90;;;;;;5087029;28;20395;-78
2021/04/17 05:57:26;;;;;;;24.83;12.40;;;15.90;99.90;;;;;;5079921;28;20875;-78
2021/04/17 05:59:53;;;;;;;23.63;11.73;;;15.90;99.90;;;;;;5075657;28;20431;-78
2021/04/17 06:02:24;;;;;;;23.77;11.60;;;15.90;99.90;;;;;;5079849;28;20753;-78
2021/04/17 06:04:51;;;;;;;23.10;11.38;;;15.80;99.90;;;;;;5077373;28;20913;-77
2021/04/17 06:07:18;;;;;;;22.98;11.50;;;15.80;99.90;;;;;;5079427;28;20459;-77
2021/04/17 06:09:45;;;;;;;22.30;10.65;;;15.90;99.90;;;;;;5077536;28;20430;-78
2021/04/17 06:12:12;;;;;;;21.80;10.63;;;16.00;99.90;;;;;;5079912;28;20380;-78
2021/04/17 06:14:39;;;;;;;24.10;12.10;;;16.00;99.90;;;;;;5074396;28;20399;-79
2021/04/17 06:17:06;;;;;;;23.00;11.25;;;15.90;99.90;;;;;;5082059;28;20392;-78
2021/04/17 06:19:33;;;;;;;25.98;12.98;;;15.90;99.90;;;;;;5074685;28;20396;-79
2021/04/17 06:22:00;;;;;;;21.48;11.77;;;15.90;99.90;;;;;;5084717;28;20392;-79
2021/04/17 06:24:27;;;;;;;22.33;9.82;;;15.80;99.90;;;;;;5077840;28;20388;-78
2021/04/17 06:26:54;;;;;;;19.98;9.45;;;15.80;99.90;;;;;;5089101;28;20425;-78
2021/04/17 06:29:21;;;;;;;23.25;11.77;;;15.90;99.90;;;;;;5078551;28;20437;-79
2021/04/17 06:31:48;;;;;;;18.90;9.18;;;15.90;99.90;;;;;;5069460;28;20390;-78
2021/04/17 06:34:15;;;;;;;16.45;8.27;;;15.90;99.90;;;;;;5069663;28;20398;-79
2021/04/17 06:36:42;;;;;;;15.20;8.30;;;15.90;99.90;;;;;;5078822;28;20386;-78
2021/04/17 06:39:10;;;;;;;17.92;9.15;;;16.00;99.90;;;;;;5074447;28;20429;-79
2021/04/17 06:41:43;;;;;;;17.58;7.55;;;16.00;99.90;;;;;;5068413;28;20443;-78
2021/04/17 06:44:12;;;;;;;17.38;6.43;;;16.00;99.90;;;;;;5079017;28;20388;-80
2021/04/17 06:46:39;;;;;;;18.00;6.20;;;16.00;99.90;;;;;;5087201;28;20384;-79
2021/04/17 06:49:07;;;;;;;12.23;4.27;;;16.00;99.90;;;;;;5077882;28;20398;-80
2021/04/17 06:51:37;;;;;;;14.00;6.00;;;16.00;99.90;;;;;;5078823;28;20392;-80
2021/04/17 06:54:11;;;;;;;14.90;7.47;;;15.90;99.90;;;;;;5083372;28;20395;-80
2021/04/17 06:56:41;;;;;;;15.43;7.18;;;15.90;99.90;;;;;;5077759;28;20405;-79
2021/04/17 06:59:09;;;;;;;14.43;7.55;;;15.90;99.90;;;;;;5075699;28;20413;-79
2021/04/17 07:01:40;;;;;;;21.48;10.27;;;15.90;99.90;;;;;;5082652;28;20400;-79
2021/04/17 07:04:07;;;;;;;18.25;8.15;;;15.90;99.90;;;;;;5084792;28;20461;-80
2021/04/17 07:06:35;;;;;;;16.93;8.33;;;15.90;99.90;;;;;;5079229;28;20688;-79
2021/04/17 07:09:04;;;;;;;13.48;6.53;;;15.90;99.90;;;;;;5090665;28;20941;-80
2021/04/17 07:11:31;;;;;;;15.43;6.30;;;15.90;99.90;;;;;;5081071;28;20856;-80
2021/04/17 07:14:08;;;;;;;14.60;5.40;;;15.90;99.90;;;;;;5075274;28;20391;-80
2021/04/17 07:17:04;;;;;;;15.02;6.15;;;15.80;99.90;;;;;;5075579;28;20410;-79
2021/04/17 07:20:00;;;;;;;19.35;6.32;;;15.80;99.90;;;;;;5080982;28;20404;-80
2021/04/17 07:22:31;;;;;;;15.13;5.25;;;15.70;99.90;;;;;;5083708;28;20387;-79
2021/04/17 07:25:19;;;;;;;13.73;5.10;;;15.60;99.90;;;;;;5082388;28;20410;-80
2021/04/17 07:27:51;;;;;;;10.57;4.97;;;15.50;99.90;;;;;;5073266;28;20979;-80
2021/04/17 07:30:18;;;;;;;11.85;4.82;;;15.40;99.90;;;;;;5068611;28;20386;-79
2021/04/17 07:33:03;;;;;;;11.50;4.15;;;15.40;99.90;;;;;;5073004;28;20394;-80
2021/04/17 07:35:36;;;;;;;10.65;4.88;;;15.30;99.90;;;;;;5073793;28;20388;-79
2021/04/17 07:38:11;;;;;;;11.52;4.50;;;15.30;99.90;;;;;;5071419;28;20409;-79
2021/04/17 07:40:38;;;;;;;12.52;4.35;;;15.30;99.90;;;;;;5073946;28;20390;-79
2021/04/17 07:43:05;;;;;;;11.43;4.13;;;15.20;99.90;;;;;;5086173;28;20394;-79
2021/04/17 07:45:37;;;;;;;14.37;4.30;;;15.20;99.90;;;;;;5081617;28;20399;-80
2021/04/17 07:48:26;;;;;;;13.23;4.70;;;15.10;99.90;;;;;;5077632;28;20382;-80
2021/04/17 07:50:54;;;;;;;12.52;4.10;;;15.00;99.90;;;;;;5078767;28;20395;-79
2021/04/17 07:53:33;;;;;;;9.55;4.00;;;15.00;99.90;;;;;;5078155;28;20903;-79
2021/04/17 07:56:28;;;;;;;11.82;4.10;;;14.90;99.90;;;;;;5074714;28;20825;-79
2021/04/17 07:59:00;;;;;;;12.15;3.88;;;14.90;99.90;;;;;;5072095;28;20447;-79
2021/04/17 08:01:31;;;;;;;10.47;3.87;;;14.80;99.90;;;;;;5077771;28;20401;-79
2021/04/17 08:04:00;;;;;;;12.52;4.38;;;14.70;99.90;;;;;;5075436;28;20606;-78
2021/04/17 08:06:28;;;;;;;12.23;4.45;;;14.70;99.90;;;;;;5075511;28;20394;-79
2021/04/17 08:08:58;;;;;;;11.20;4.43;;;14.60;99.90;;;;;;5079312;28;20411;-79
2021/04/17 08:11:28;;;;;;;13.30;4.97;;;14.60;99.90;;;;;;5078234;28;20388;-80
2021/04/17 08:13:56;;;;;;;12.75;5.20;;;14.60;99.90;;;;;;5083247;28;20402;-79
2021/04/17 08:16:24;;;;;;;10.23;4.97;;;14.50;99.90;;;;;;5077297;28;20394;-79
2021/04/17 08:18:52;;;;;;;15.18;5.00;;;14.40;99.90;;;;;;5079357;28;20402;-79
2021/04/17 08:21:21;;;;;;;16.98;5.28;;;14.30;99.90;;;;;;5090968;28;20385;-79
2021/04/17 08:23:52;;;;;;;13.30;5.32;;;14.30;99.90;;;;;;5081187;28;20385;-80
2021/04/17 08:26:19;;;;;;;15.68;5.38;;;14.20;99.90;;;;;;5079412;28;20400;-80
2021/04/17 08:28:49;;;;;;;14.35;5.43;;;14.10;99.90;;;;;;5078361;28;20890;-79
2021/04/17 08:31:32;;;;;;;17.33;5.47;;;14.00;99.90;;;;;;5078940;28;20470;-80
2021/04/17 08:34:18;;;;;;;16.52;5.95;;;14.00;99.90;;;;;;5078389;28;20395;-80
2021/04/17 08:37:02;;;;;;;19.33;6.30;;;13.90;99.90;;;;;;5079470;28;20382;-80
2021/04/17 08:39:35;;;;;;;17.23;5.60;;;13.90;99.90;;;;;;5079104;28;20905;-79
2021/04/17 08:42:03;;;;;;;13.27;5.43;;;13.90;99.90;;;;;;5078317;28;20380;-80
2021/04/17 08:44:38;;;;;;;17.35;6.10;;;13.90;99.90;;;;;;5078002;28;20450;-80
2021/04/17 08:47:07;;;;;;;17.40;7.45;;;13.80;99.90;;;;;;5073115;28;20397;-80
2021/04/17 08:49:37;;;;;;;18.52;8.50;;;13.80;99.90;;;;;;5086629;28;20448;-80
2021/04/17 08:52:10;;;;;;;18.65;7.25;;;13.70;99.90;;;;;;5088816;28;20850;-79
2021/04/17 08:54:38;;;;;;;15.55;6.68;;;13.60;99.90;;;;;;5091068;28;22005;-77
2021/04/17 08:57:18;;;;;;;17.05;8.95;;;13.60;99.90;;;;;;5089180;28;20812;-80
2021/04/17 08:59:58;;;;;;;22.75;10.73;;;13.60;99.90;;;;;;5078231;28;20395;-80
2021/04/17 09:02:27;;;;;;;22.50;11.23;;;13.50;99.90;;;;;;5076825;28;20379;-81
2021/04/17 09:05:09;;;;;;;21.53;10.10;;;13.40;99.90;;;;;;5076881;28;20813;-80
2021/04/17 09:07:41;;;;;;;14.13;7.88;;;13.40;99.90;;;;;;5076456;28;20447;-79
2021/04/17 09:10:26;;;;;;;18.92;8.27;;;13.40;99.90;;;;;;5078627;28;20471;-79
2021/04/17 09:13:16;;;;;;;15.60;7.40;;;13.40;99.90;;;;;;5076172;28;20760;-81
2021/04/17 09:15:52;;;;;;;19.67;7.05;;;13.40;99.90;;;;;;5075981;28;20409;-79
2021/04/17 09:21:05;;;;;;;16.58;7.43;;;13.40;99.90;;;;;;5068839;28;20721;-79
2021/04/17 09:23:44;;;;;;;18.23;8.90;;;13.40;99.90;;;;;;5081469;28;20392;-79
2021/04/17 09:26:32;;;;;;;20.57;9.53;;;13.40;99.90;;;;;;5080309;28;20394;-80
2021/04/17 09:29:26;;;;;;;21.05;8.93;;;13.50;99.90;;;;;;5075254;28;20874;-79
2021/04/17 09:31:57;;;;;;;18.60;8.30;;;13.50;99.90;;;;;;5074123;28;20380;-79
2021/04/17 09:34:24;;;;;;;15.48;6.78;;;13.40;99.90;;;;;;5081858;28;20400;-79
2021/04/17 09:36:51;;;;;;;18.63;7.05;;;13.30;99.90;;;;;;5082308;28;20420;-80
2021/04/17 09:39:30;;;;;;;15.57;6.80;;;13.30;99.90;;;;;;5067169;28;20880;-79
2021/04/17 09:42:06;;;;;;;24.23;8.35;;;13.20;99.90;;;;;;5082467;28;20392;-79
2021/04/17 09:44:47;;;;;;;16.77;8.30;;;13.20;99.90;;;;;;5084888;28;20384;-79
2021/04/17 09:47:16;;;;;;;14.52;7.05;;;13.20;99.90;;;;;;5084750;28;20387;-79
2021/04/17 09:49:48;;;;;;;14.13;6.40;;;13.10;99.90;;;;;;5076702;28;20447;-79
2021/04/17 09:52:20;;;;;;;15.02;6.40;;;13.10;99.90;;;;;;5084693;28;20380;-78
2021/04/17 09:55:01;;;;;;;15.13;6.43;;;13.00;99.90;;;;;;5081844;28;20399;-78
2021/04/17 09:57:30;;;;;;;14.18;6.40;;;13.00;99.90;;;;;;5080442;28;20452;-79
2021/04/17 10:00:00;;;;;;;12.18;6.32;;;13.00;99.90;;;;;;5068296;28;20772;-79
2021/04/17 10:02:46;;;;;;;17.13;6.93;;;13.00;99.90;;;;;;5066976;28;20749;-79
2021/04/17 10:05:15;;;;;;;16.33;7.35;;;12.90;99.90;;;;;;5078608;28;20377;-79
2021/04/17 10:07:50;;;;;;;15.57;7.18;;;12.90;99.90;;;;;;5083182;28;20391;-79
2021/04/17 10:10:17;;;;;;;18.50;8.23;;;12.80;99.90;;;;;;5073501;28;20905;-79
2021/04/17 10:12:55;;;;;;;18.33;8.43;;;12.70;99.90;;;;;;5080008;28;20777;-79
2021/04/17 10:15:28;;;;;;;18.00;7.45;;;12.60;99.90;;;;;;5086163;28;20368;-80
2021/04/17 10:17:57;;;;;;;15.32;5.10;;;12.60;99.90;;;;;;5086235;28;20879;-79
2021/04/17 10:20:25;;;;;;;12.75;5.18;;;12.60;99.90;;;;;;5081368;28;20867;-79
2021/04/17 10:22:57;;;;;;;13.40;5.30;;;12.60;99.90;;;;;;5076994;28;20451;-79
2021/04/17 10:25:40;;;;;;;13.20;4.97;;;12.60;99.90;;;;;;5074313;28;20400;-78
2021/04/17 10:28:24;;;;;;;13.00;4.80;;;12.60;99.90;;;;;;5076450;28;20431;-79
2021/04/17 10:30:58;;;;;;;13.70;5.03;;;12.60;99.90;;;;;;5074323;28;20882;-79
2021/04/17 10:33:27;;;;;;;14.98;5.43;;;12.50;99.90;;;;;;5070069;28;20400;-79
2021/04/17 10:35:56;;;;;;;14.10;5.40;;;12.50;99.90;;;;;;5081800;28;20945;-79
2021/04/17 10:38:25;;;;;;;13.45;5.00;;;12.50;99.90;;;;;;5084416;28;20408;-79
2021/04/17 10:40:52;;;;;;;13.90;4.70;;;12.50;99.90;;;;;;5072464;28;20481;-79
2021/04/17 10:43:20;;;;;;;14.83;4.40;;;12.50;99.90;;;;;;5081089;28;20412;-79
2021/04/17 10:45:49;;;;;;;14.73;4.72;;;12.40;99.90;;;;;;5077632;28;20954;-79
2021/04/17 10:48:24;;;;;;;10.75;4.43;;;12.40;99.90;;;;;;5080054;28;20440;-80
2021/04/17 10:51:05;;;;;;;10.10;4.03;;;12.30;99.90;;;;;;5083556;28;20875;-79
2021/04/17 10:53:39;;;;;;;11.75;4.05;;;12.30;99.90;;;;;;5072577;28;20402;-79
2021/04/17 10:56:18;;;;;;;12.07;4.40;;;12.40;99.90;;;;;;5067486;28;20451;-80
2021/04/17 10:58:48;;;;;;;13.45;4.25;;;12.30;99.90;;;;;;5065277;28;20402;-80
2021/04/17 11:01:24;;;;;;;11.57;4.32;;;12.40;99.90;;;;;;5068275;28;20394;-79
2021/04/17 11:04:00;;;;;;;13.63;4.50;;;12.30;99.90;;;;;;5068548;28;20420;-80
2021/04/17 11:06:37;;;;;;;12.20;4.90;;;12.30;99.90;;;;;;5078088;28;20392;-80
2021/04/17 11:09:11;;;;;;;14.93;5.43;;;12.30;99.90;;;;;;5069027;28;20388;-80
2021/04/17 11:11:51;;;;;;;10.90;5.47;;;12.20;99.90;;;;;;5080063;28;20392;-80
2021/04/17 11:14:22;;;;;;;14.60;5.13;;;12.20;99.90;;;;;;5081204;28;20466;-80
2021/04/17 11:16:51;;;;;;;14.70;4.88;;;12.10;99.90;;;;;;5084263;28;20463;-79
2021/04/17 11:19:36;;;;;;;14.57;5.30;;;12.10;99.90;;;;;;5071847;28;20492;-80
2021/04/17 11:22:22;;;;;;;11.95;4.75;;;12.10;99.90;;;;;;5067630;28;20406;-79
2021/04/17 11:25:04;;;;;;;14.90;4.75;;;12.00;99.90;;;;;;5073350;28;20382;-80
2021/04/17 11:27:31;;;;;;;11.10;4.60;;;12.00;99.90;;;;;;5084242;28;20402;-80
2021/04/17 11:30:01;;;;;;;13.93;4.80;;;12.00;99.90;;;;;;5089297;28;20854;-79
2021/04/17 11:32:28;;;;;;;13.75;4.50;;;12.00;99.90;;;;;;5089608;28;20437;-79
2021/04/17 11:34:56;;;;;;;11.95;4.50;;;12.00;99.90;;;;;;5089151;28;20384;-80
2021/04/17 11:37:24;;;;;;;9.68;4.15;;;12.00;99.90;;;;;;5077220;28;21385;-80
2021/04/17 11:39:51;;;;;;;10.15;4.05;;;12.00;99.90;;;;;;5083244;28;20492;-79
2021/04/17 11:42:18;;;;;;;11.02;4.00;;;12.00;99.90;;;;;;5069263;28;20488;-81
2021/04/17 11:44:46;;;;;;;11.15;4.32;;;12.00;99.90;;;;;;5087174;28;20949;-79
2021/04/17 11:47:14;;;;;;;14.45;5.93;;;12.00;99.90;;;;;;5086555;28;20437;-79
2021/04/17 11:49:41;;;;;;;15.60;7.57;;;11.90;99.90;;;;;;5083900;28;20408;-80
2021/04/17 11:52:08;;;;;;;10.57;5.07;;;11.90;99.90;;;;;;5078119;28;20391;-79
2021/04/17 11:54:35;;;;;;;12.57;5.20;;;11.90;99.90;;;;;;5081751;28;20477;-80
2021/04/17 11:57:03;;;;;;;14.50;5.30;;;11.90;99.90;;;;;;5088316;28;20491;-79
2021/04/17 11:59:30;;;;;;;14.93;5.53;;;11.90;99.90;;;;;;5091072;28;20392;-80
2021/04/17 12:01:57;;;;;;;9.75;4.80;;;11.90;99.90;;;;;;5092162;28;20376;-80
2021/04/17 12:04:24;;;;;;;11.52;5.13;;;11.90;99.90;;;;;;5087703;28;20885;-80
2021/04/17 12:06:52;;;;;;;13.18;5.07;;;11.90;99.90;;;;;;5078951;28;20934;-80
2021/04/17 12:09:19;;;;;;;12.10;4.85;;;11.80;99.90;;;;;;5071554;28;20371;-81
2021/04/17 12:11:47;;;;;;;13.95;4.80;;;11.90;99.90;;;;;;5075393;28;20394;-80
2021/04/17 12:14:14;;;;;;;9.25;4.38;;;11.90;99.90;;;;;;5086465;28;20400;-80
2021/04/17 12:16:41;;;;;;;12.60;4.77;;;11.90;99.90;;;;;;5078891;28;20921;-81
2021/04/17 12:19:08;;;;;;;9.77;4.30;;;11.80;99.90;;;;;;5081289;28;20810;-83
2021/04/17 12:21:35;;;;;;;8.90;4.40;;;11.80;99.90;;;;;;5079775;28;20464;-82
2021/04/17 12:24:02;;;;;;;12.02;4.13;;;11.80;99.90;;;;;;5088162;28;20411;-82
2021/04/17 12:26:29;;;;;;;10.75;4.05;;;11.80;99.90;;;;;;5082745;28;20413;-82
2021/04/17 12:28:56;;;;;;;9.02;4.22;;;11.80;99.90;;;;;;5083746;28;20874;-81
2021/04/17 12:31:25;;;;;;;10.27;3.70;;;11.80;99.90;;;;;;5089854;28;20972;-81
2021/04/17 12:33:52;;;;;;;8.43;3.10;;;11.80;99.90;;;;;;5075859;28;20390;-82
2021/04/17 12:36:19;;;;;;;11.50;3.67;;;11.80;99.90;;;;;;5087310;28;20400;-81
2021/04/17 12:38:46;;;;;;;9.98;3.35;;;11.80;99.90;;;;;;5088000;28;20426;-82
2021/04/17 12:41:13;;;;;;;12.38;3.65;;;11.80;99.90;;;;;;5079254;28;20396;-82
2021/04/17 12:43:40;;;;;;;8.65;3.60;;;11.80;99.90;;;;;;5083057;28;20958;-82
2021/04/17 12:46:07;;;;;;;7.22;2.97;;;11.80;99.90;;;;;;5086811;28;21359;-81
2021/04/17 12:48:34;;;;;;;9.55;3.08;;;11.80;99.90;;;;;;5080398;28;20396;-81
2021/04/17 12:51:01;;;;;;;8.07;2.97;;;11.80;99.90;;;;;;5086138;28;20741;-81
2021/04/17 12:53:28;;;;;;;10.07;3.10;;;11.80;99.90;;;;;;5087622;28;20393;-81
2021/04/17 12:55:55;;;;;;;10.07;3.47;;;11.80;99.90;;;;;;5083476;28;20447;-81
2021/04/17 12:58:23;;;;;;;7.70;3.60;;;11.70;99.90;;;;;;5074766;28;20411;-81